Time;durP1;ratioP1;P1;durP2;ratioP2;P2;SDS_P1;SDS_P2;PMS_P1;PMS_P2;Temp;Humidity;BMP_temperature;BMP_pressure;BME280_temperature;BME280_humidity;BME280_pressure;Samples;Min_cycle;Max_cycle;Signal;HPM_P1;HPM_P2
2022/02/18 00:01:16;;;;;;;13.30;3.30;;;;;;;4.66;68.88;97568.30;105725;1277;97189;-72
2022/02/18 00:03:45;;;;;;;13.80;3.50;;;;;;;4.66;68.90;97571.63;105714;1277;107505;-72
2022/02/18 00:06:13;;;;;;;10.20;2.40;;;;;;;4.66;68.78;97579.54;105758;1277;99454;-70
2022/02/18 00:08:42;;;;;;;16.30;3.00;;;;;;;4.66;68.87;97586.54;105693;1276;97332;-72
2022/02/18 00:11:09;;;;;;;11.90;2.90;;;;;;;4.67;68.57;97588.41;105700;1277;112780;-71
2022/02/18 00:13:37;;;;;;;13.80;3.00;;;;;;;4.68;68.38;97594.70;105816;1276;96954;-72
2022/02/18 00:16:05;;;;;;;12.70;2.80;;;;;;;4.70;68.68;97597.52;105788;1276;105804;-71
2022/02/18 00:18:34;;;;;;;14.40;3.10;;;;;;;4.71;68.71;97601.65;105690;1276;100337;-70
2022/02/18 00:21:02;;;;;;;10.90;2.60;;;;;;;4.71;68.59;97605.62;105729;1276;99344;-71
2022/02/18 00:23:31;;;;;;;11.80;3.40;;;;;;;4.72;68.63;97604.73;105782;1276;112896;-71
2022/02/18 00:25:59;;;;;;;14.30;2.70;;;;;;;4.72;68.41;97611.19;105767;1277;99168;-73
2022/02/18 00:28:30;;;;;;;13.40;3.00;;;;;;;4.72;68.50;97613.82;105805;1276;107808;-72
2022/02/18 00:30:58;;;;;;;12.00;3.50;;;;;;;4.73;68.56;97621.02;105737;1276;99275;-69
2022/02/18 00:33:25;;;;;;;14.60;2.90;;;;;;;4.73;68.59;97620.95;105828;1276;99470;-72
2022/02/18 00:35:53;;;;;;;13.40;3.20;;;;;;;4.72;68.49;97623.88;105740;1276;112631;-71
2022/02/18 00:38:21;;;;;;;15.80;3.30;;;;;;;4.71;68.15;97623.08;105776;1276;99256;-72
2022/02/18 00:40:49;;;;;;;13.40;3.10;;;;;;;4.71;68.45;97629.05;105729;1276;107720;-71
2022/02/18 00:43:17;;;;;;;12.70;3.00;;;;;;;4.70;68.45;97632.77;105819;1276;100874;-68
2022/02/18 00:45:44;;;;;;;15.30;3.00;;;;;;;4.72;67.99;97640.52;105785;1276;99827;-71
2022/02/18 00:48:12;;;;;;;11.30;3.40;;;;;;;4.73;67.97;97638.35;105808;1276;112762;-71
2022/02/18 00:50:42;;;;;;;11.10;2.70;;;;;;;4.73;68.12;97638.33;105781;1276;99177;-71
2022/02/18 00:53:10;;;;;;;11.40;2.80;;;;;;;4.75;68.22;97639.49;105809;1276;108498;-71
2022/02/18 00:55:38;;;;;;;15.40;3.70;;;;;;;4.74;67.84;97648.98;105830;1276;99285;-72
2022/02/18 00:58:05;;;;;;;10.40;3.00;;;;;;;4.73;68.00;97649.76;105780;1276;97719;-70
2022/02/18 01:00:33;;;;;;;13.90;3.20;;;;;;;4.73;67.76;97655.05;105761;1276;112877;-70
2022/02/18 01:03:01;;;;;;;15.90;3.60;;;;;;;4.72;67.98;97653.86;105835;1276;99343;-72
2022/02/18 01:05:30;;;;;;;11.70;3.70;;;;;;;4.73;67.64;97665.05;105769;1276;106726;-72
2022/02/18 01:07:58;;;;;;;13.00;3.50;;;;;;;4.74;67.72;97673.75;105805;1276;99319;-71
2022/02/18 01:10:26;;;;;;;16.20;3.20;;;;;;;4.74;67.55;97669.67;105795;1276;98346;-70
2022/02/18 01:12:54;;;;;;;15.00;3.70;;;;;;;4.75;67.74;97676.85;105831;1276;112768;-71
2022/02/18 01:15:23;;;;;;;17.50;4.20;;;;;;;4.76;67.45;97676.59;105733;1276;99219;-70
2022/02/18 01:17:51;;;;;;;9.60;2.90;;;;;;;4.77;67.74;97676.05;105831;1276;106778;-70
2022/02/18 01:20:20;;;;;;;13.10;3.80;;;;;;;4.78;66.95;97679.29;105765;1276;99686;-69
2022/02/18 01:22:49;;;;;;;15.90;3.80;;;;;;;4.77;67.38;97679.36;105831;1276;99214;-71
2022/02/18 01:25:17;;;;;;;16.50;3.50;;;;;;;4.78;66.84;97687.74;105792;1276;112707;-71
2022/02/18 01:27:45;;;;;;;14.80;3.40;;;;;;;4.79;67.10;97688.52;105730;1277;97334;-70
2022/02/18 01:30:13;;;;;;;13.60;3.80;;;;;;;4.80;66.06;97684.12;105745;1276;107708;-70
2022/02/18 01:32:41;;;;;;;14.60;3.80;;;;;;;4.79;66.56;97693.79;105753;1277;99327;-70
2022/02/18 01:35:10;;;;;;;13.30;2.80;;;;;;;4.80;66.46;97688.84;105791;1276;98046;-70
2022/02/18 01:37:39;;;;;;;12.20;3.70;;;;;;;4.81;66.84;97695.27;105787;1276;112877;-71
2022/02/18 01:40:08;;;;;;;15.40;3.30;;;;;;;4.82;66.94;97694.48;105791;1277;99313;-70
2022/02/18 01:42:36;;;;;;;11.60;2.70;;;;;;;4.83;66.85;97696.33;105779;1277;107859;-69
2022/02/18 01:45:05;;;;;;;14.00;3.10;;;;;;;4.84;67.12;97699.95;105753;1276;99217;-71
2022/02/18 01:47:33;;;;;;;8.90;2.70;;;;;;;4.84;66.47;97709.75;105867;1276;99397;-70
2022/02/18 01:50:04;;;;;;;10.80;2.80;;;;;;;4.84;66.27;97703.15;105741;1276;112799;-70
2022/02/18 01:52:37;;;;;;;9.60;2.70;;;;;;;4.84;66.71;97702.77;105789;1276;97388;-71
2022/02/18 01:55:12;;;;;;;9.60;2.40;;;;;;;4.86;66.60;97711.61;105827;1277;107617;-70
2022/02/18 01:57:46;;;;;;;16.40;4.30;;;;;;;4.86;66.27;97706.67;105768;1276;99269;-71
2022/02/18 02:00:16;;;;;;;7.70;2.40;;;;;;;4.85;66.40;97709.88;105863;1276;99246;-71
2022/02/18 02:02:45;;;;;;;12.00;2.50;;;;;;;4.86;66.15;97713.89;105829;1276;112806;-69
2022/02/18 02:05:14;;;;;;;9.40;2.40;;;;;;;4.87;66.43;97718.20;105824;1276;96610;-69
2022/02/18 02:07:45;;;;;;;9.40;3.00;;;;;;;4.87;66.22;97722.04;105705;1277;107792;-70
2022/02/18 02:10:15;;;;;;;12.60;2.40;;;;;;;4.88;66.08;97728.47;105883;1276;99287;-70
2022/02/18 02:12:53;;;;;;;12.60;2.40;;;;;;;4.89;66.26;97736.66;105793;1276;99312;-71
2022/02/18 02:15:25;;;;;;;9.90;2.20;;;;;;;4.90;66.08;97740.99;105711;1276;113868;-71
2022/02/18 02:17:58;;;;;;;12.50;2.50;;;;;;;4.89;66.01;97743.48;105800;1276;99326;-70
2022/02/18 02:20:26;;;;;;;14.20;3.10;;;;;;;4.89;65.75;97752.28;105697;1276;107814;-71
2022/02/18 02:22:54;;;;;;;7.90;2.40;;;;;;;4.88;65.69;97754.14;105723;1277;99233;-72
2022/02/18 02:25:33;;;;;;;8.90;2.30;;;;;;;4.87;65.87;97756.78;105768;1276;99363;-72
2022/02/18 02:28:00;;;;;;;11.20;3.30;;;;;;;4.86;65.83;97764.80;105742;1276;112778;-71
2022/02/18 02:30:28;;;;;;;14.70;3.20;;;;;;;4.85;65.06;97768.18;105810;1276;99337;-71
2022/02/18 02:32:56;;;;;;;13.20;2.80;;;;;;;4.84;65.59;97766.67;105782;1276;107671;-69
2022/02/18 02:35:24;;;;;;;10.20;2.70;;;;;;;4.84;65.35;97767.75;105767;1276;99119;-70
2022/02/18 02:37:52;;;;;;;10.00;2.30;;;;;;;4.83;65.67;97769.39;105778;1276;98066;-71
2022/02/18 02:40:19;;;;;;;19.00;3.20;;;;;;;4.83;65.56;97771.13;105825;1277;112632;-71
2022/02/18 02:42:48;;;;;;;18.50;2.90;;;;;;;4.82;64.91;97774.53;105850;1276;99245;-70
2022/02/18 02:45:17;;;;;;;15.40;3.00;;;;;;;4.82;65.37;97784.79;105795;1276;107926;-69
2022/02/18 02:47:47;;;;;;;10.80;3.00;;;;;;;4.81;64.65;97787.45;105796;1276;99182;-69
2022/02/18 02:50:16;;;;;;;10.40;2.70;;;;;;;4.82;65.07;97790.76;105762;1277;99192;-70
2022/02/18 02:52:44;;;;;;;12.50;2.90;;;;;;;4.82;64.93;97789.99;105805;1276;112588;-71
2022/02/18 02:55:13;;;;;;;12.20;3.70;;;;;;;4.84;64.83;97795.70;105837;1276;99243;-71
2022/02/18 02:57:45;;;;;;;12.70;3.20;;;;;;;4.83;64.56;97800.14;105731;1276;107820;-71
2022/02/18 03:00:14;;;;;;;16.60;3.90;;;;;;;4.84;64.60;97805.89;105802;1276;96733;-68
2022/02/18 03:02:44;;;;;;;8.80;2.80;;;;;;;4.86;64.93;97808.88;105824;1276;97765;-71
2022/02/18 03:05:13;;;;;;;14.10;2.80;;;;;;;4.86;63.87;97807.83;105783;1276;112812;-70
2022/02/18 03:07:42;;;;;;;16.10;3.30;;;;;;;4.87;64.24;97815.52;105797;1276;99343;-72
2022/02/18 03:10:10;;;;;;;11.70;2.90;;;;;;;4.87;64.68;97829.02;105788;1276;109204;-71
2022/02/18 03:12:38;;;;;;;12.10;3.10;;;;;;;4.87;64.02;97827.80;105843;1276;97928;-71
2022/02/18 03:15:06;;;;;;;16.90;3.60;;;;;;;4.87;64.51;97831.64;105836;1276;99322;-70
2022/02/18 03:17:34;;;;;;;11.70;2.60;;;;;;;4.87;64.31;97826.74;105747;1276;113601;-71
2022/02/18 03:20:03;;;;;;;14.20;3.10;;;;;;;4.88;64.36;97837.23;105731;1276;99286;-71
2022/02/18 03:22:32;;;;;;;12.70;2.90;;;;;;;4.87;63.93;97837.07;105800;1276;108447;-72
2022/02/18 03:25:00;;;;;;;14.10;2.90;;;;;;;4.87;63.63;97836.36;105834;1276;99410;-71
2022/02/18 03:27:28;;;;;;;12.20;2.90;;;;;;;4.88;64.15;97842.30;105837;1276;99349;-71
2022/02/18 03:29:56;;;;;;;10.70;2.40;;;;;;;4.89;64.05;97848.19;105824;1276;112705;-71
2022/02/18 03:32:24;;;;;;;10.60;3.10;;;;;;;4.90;63.90;97847.26;105801;1276;101106;-72
2022/02/18 03:34:53;;;;;;;11.90;2.80;;;;;;;4.89;62.72;97852.92;105504;1276;381271;-70
2022/02/18 03:37:20;;;;;;;8.00;2.60;;;;;;;4.88;63.65;97852.09;105892;1276;99368;-71
2022/02/18 03:39:48;;;;;;;13.80;2.40;;;;;;;4.89;63.72;97855.78;105893;1276;97931;-70
2022/02/18 03:42:16;;;;;;;9.20;2.40;;;;;;;4.89;63.29;97857.20;105895;1276;112718;-71
2022/02/18 03:44:45;;;;;;;9.00;2.50;;;;;;;4.88;63.68;97867.42;105870;1276;99167;-70
2022/02/18 03:47:12;;;;;;;9.40;2.30;;;;;;;4.87;63.42;97869.80;105772;1276;107407;-71
2022/02/18 03:49:40;;;;;;;11.10;2.60;;;;;;;4.87;63.26;97871.73;105756;1276;97369;-70
2022/02/18 03:52:09;;;;;;;8.80;2.40;;;;;;;4.85;63.31;97874.96;105754;1277;99200;-71
2022/02/18 03:54:36;;;;;;;9.80;2.30;;;;;;;4.86;62.66;97877.20;105807;1276;112751;-72
2022/02/18 03:57:05;;;;;;;6.60;1.80;;;;;;;4.86;63.07;97881.61;105795;1276;99914;-72
2022/02/18 03:59:33;;;;;;;12.80;2.60;;;;;;;4.86;62.69;97887.44;105790;1277;107743;-70
2022/02/18 04:02:00;;;;;;;15.00;2.90;;;;;;;4.85;62.31;97882.74;105834;1276;99421;-71
2022/02/18 04:04:29;;;;;;;10.50;3.30;;;;;;;4.85;62.73;97886.97;105828;1276;99359;-70
2022/02/18 04:06:57;;;;;;;11.40;3.20;;;;;;;4.82;61.83;97885.02;105881;1276;112754;-70
2022/02/18 04:09:24;;;;;;;12.30;2.70;;;;;;;4.83;62.68;97896.94;105824;1276;99796;-71
2022/02/18 04:11:52;;;;;;;12.40;2.80;;;;;;;4.82;62.46;97897.68;105783;1276;107731;-70
2022/02/18 04:14:20;;;;;;;8.80;2.10;;;;;;;4.83;62.72;97899.73;105791;1276;97850;-71
2022/02/18 04:16:48;;;;;;;5.90;2.10;;;;;;;4.83;62.44;97900.96;105789;1276;99240;-71
2022/02/18 04:19:17;;;;;;;8.80;2.20;;;;;;;4.82;61.91;97911.02;105829;1276;113215;-72
2022/02/18 04:22:04;;;;;;;9.00;2.70;;;;;;;4.81;62.13;97908.48;105830;1276;99265;-67
2022/02/18 04:24:32;;;;;;;11.00;2.90;;;;;;;4.80;62.08;97913.46;105837;1276;107698;-72
2022/02/18 04:27:00;;;;;;;14.10;2.50;;;;;;;4.78;61.33;97928.51;105834;1276;99803;-71
2022/02/18 04:29:28;;;;;;;9.50;3.00;;;;;;;4.75;61.62;97919.38;105809;1276;97227;-71
2022/02/18 04:31:55;;;;;;;15.10;4.70;;;;;;;4.75;61.79;97929.23;105887;1276;112769;-71
2022/02/18 04:34:23;;;;;;;11.40;2.40;;;;;;;4.73;61.82;97927.44;105892;1276;99308;-73
2022/02/18 04:36:51;;;;;;;9.80;2.30;;;;;;;4.72;61.43;97932.78;105832;1276;107675;-70
2022/02/18 04:39:21;;;;;;;7.30;2.00;;;;;;;4.70;61.60;97937.66;105787;1276;96622;-71
2022/02/18 04:41:49;;;;;;;10.00;3.00;;;;;;;4.70;62.08;97940.83;105774;1276;98339;-72
2022/02/18 04:44:19;;;;;;;16.60;3.00;;;;;;;4.71;62.25;97948.34;105839;1276;112802;-72
2022/02/18 04:46:47;;;;;;;14.40;3.20;;;;;;;4.71;62.25;97944.27;105910;1276;99236;-70
2022/02/18 04:49:21;;;;;;;14.20;2.80;;;;;;;4.70;61.57;97950.30;105832;1276;107943;-72
2022/02/18 04:52:09;;;;;;;7.90;2.10;;;;;;;4.69;61.89;97951.41;105837;1276;99349;-72
2022/02/18 04:54:37;;;;;;;11.80;2.40;;;;;;;4.68;61.60;97956.55;105910;1276;97855;-71
2022/02/18 04:57:05;;;;;;;8.00;2.30;;;;;;;4.67;61.53;97958.56;105799;1276;112737;-71
2022/02/18 04:59:33;;;;;;;9.70;2.30;;;;;;;4.67;60.79;97961.95;105871;1276;99225;-71
2022/02/18 05:02:01;;;;;;;13.80;3.00;;;;;;;4.66;61.17;97962.70;105835;1276;108239;-70
2022/02/18 05:04:29;;;;;;;9.50;2.80;;;;;;;4.64;60.96;97968.41;105861;1276;97865;-73
2022/02/18 05:06:58;;;;;;;12.90;3.20;;;;;;;4.63;61.22;97973.04;105870;1276;99178;-73
2022/02/18 05:09:26;;;;;;;9.00;2.70;;;;;;;4.63;61.57;97975.85;105870;1276;112785;-74
2022/02/18 05:11:53;;;;;;;11.30;2.70;;;;;;;4.62;61.31;97977.33;105962;1276;99652;-73
2022/02/18 05:14:21;;;;;;;9.30;2.90;;;;;;;4.60;61.23;97985.69;105953;1276;107738;-72
2022/02/18 05:16:49;;;;;;;11.70;2.60;;;;;;;4.58;60.88;97988.27;105836;1276;99250;-71
2022/02/18 05:19:17;;;;;;;12.10;2.40;;;;;;;4.57;61.21;97988.52;105867;1276;99217;-70
2022/02/18 05:21:45;;;;;;;11.00;2.90;;;;;;;4.56;60.87;97996.48;105828;1276;112807;-71
2022/02/18 05:24:13;;;;;;;11.50;2.70;;;;;;;4.55;61.19;97989.71;105864;1276;99230;-72
2022/02/18 05:26:44;;;;;;;11.00;2.30;;;;;;;4.54;61.30;97995.41;105841;1276;106875;-74
2022/02/18 05:29:12;;;;;;;14.40;2.70;;;;;;;4.54;61.48;97995.95;105823;1278;97335;-73
2022/02/18 05:31:40;;;;;;;12.90;3.20;;;;;;;4.54;61.41;98000.19;105884;1276;97864;-72
2022/02/18 05:34:07;;;;;;;13.80;3.60;;;;;;;4.53;61.20;98002.48;105846;1276;112620;-73
2022/02/18 05:36:35;;;;;;;10.00;2.60;;;;;;;4.53;61.04;98003.91;105797;1277;99126;-69
2022/02/18 05:39:03;;;;;;;16.50;4.60;;;;;;;4.51;60.56;98005.44;105831;1276;107778;-71
2022/02/18 05:41:32;;;;;;;11.30;2.80;;;;;;;4.50;61.14;98007.61;105823;1276;99318;-72
2022/02/18 05:44:00;;;;;;;11.00;3.10;;;;;;;4.49;61.18;98012.95;105736;1277;100363;-72
2022/02/18 05:46:28;;;;;;;16.10;3.10;;;;;;;4.46;60.73;98016.95;105869;1276;112879;-73
2022/02/18 05:48:56;;;;;;;12.30;2.60;;;;;;;4.45;61.17;98023.16;105848;1276;99772;-73
2022/02/18 05:51:24;;;;;;;10.70;3.20;;;;;;;4.45;60.69;98024.94;105834;1276;106607;-72
2022/02/18 05:53:52;;;;;;;12.50;3.40;;;;;;;4.44;61.02;98031.33;105655;1276;99327;-73
2022/02/18 05:56:20;;;;;;;11.50;2.80;;;;;;;4.44;61.30;98031.69;105814;1276;97298;-75
2022/02/18 05:58:48;;;;;;;13.30;3.10;;;;;;;4.44;60.81;98040.27;105796;1276;112819;-74
2022/02/18 06:01:20;;;;;;;13.10;3.00;;;;;;;4.43;60.40;98037.16;105867;1276;99307;-73
2022/02/18 06:03:48;;;;;;;13.30;3.30;;;;;;;4.42;60.34;98043.90;105830;1276;108583;-74
2022/02/18 06:06:16;;;;;;;11.30;3.10;;;;;;;4.44;60.80;98044.50;105830;1276;97191;-71
2022/02/18 06:08:44;;;;;;;14.50;2.80;;;;;;;4.44;60.71;98049.73;105900;1276;99295;-73
2022/02/18 06:11:12;;;;;;;12.20;3.50;;;;;;;4.44;60.16;98049.55;105830;1276;112740;-74
2022/02/18 06:13:40;;;;;;;11.90;2.80;;;;;;;4.45;60.46;98051.83;105786;1277;99248;-74
2022/02/18 06:16:09;;;;;;;13.20;2.90;;;;;;;4.45;60.55;98055.65;105895;1276;107885;-75
2022/02/18 06:18:36;;;;;;;13.40;3.00;;;;;;;4.45;60.44;98065.30;105821;1279;99233;-74
2022/02/18 06:21:04;;;;;;;10.70;2.60;;;;;;;4.46;60.74;98062.84;105846;1276;97449;-74
2022/02/18 06:23:34;;;;;;;10.40;2.40;;;;;;;4.47;60.29;98064.52;105860;1276;112801;-73
2022/02/18 06:26:02;;;;;;;13.00;3.20;;;;;;;4.47;60.54;98068.71;105909;1276;96559;-74
2022/02/18 06:28:30;;;;;;;15.00;3.00;;;;;;;4.48;60.52;98066.72;105875;1276;106893;-74
2022/02/18 06:30:58;;;;;;;15.70;3.20;;;;;;;4.51;60.55;98073.71;105840;1276;99223;-71
2022/02/18 06:33:26;;;;;;;15.80;3.70;;;;;;;4.53;60.16;98081.36;105909;1276;99217;-72
2022/02/18 06:35:54;;;;;;;15.90;3.60;;;;;;;4.54;60.21;98081.80;105825;1276;112674;-72
2022/02/18 06:38:22;;;;;;;11.80;2.70;;;;;;;4.55;59.74;98086.45;105947;1276;99301;-71
2022/02/18 06:40:50;;;;;;;11.50;3.00;;;;;;;4.57;59.91;98081.06;105864;1276;107708;-70
2022/02/18 06:43:19;;;;;;;14.60;3.40;;;;;;;4.58;60.13;98084.89;105850;1276;99311;-71
2022/02/18 06:45:47;;;;;;;13.40;3.60;;;;;;;4.59;60.51;98087.48;105907;1276;99909;-73
2022/02/18 06:48:17;;;;;;;12.50;3.10;;;;;;;4.61;60.30;98093.82;105919;1276;112833;-72
2022/02/18 06:50:45;;;;;;;17.20;3.70;;;;;;;4.61;60.42;98092.02;105858;1276;97225;-71
2022/02/18 06:53:13;;;;;;;14.30;3.20;;;;;;;4.62;60.13;98091.48;105844;1276;108651;-72
2022/02/18 06:55:41;;;;;;;15.90;3.30;;;;;;;4.62;60.30;98096.05;105559;1276;99227;-71
2022/02/18 06:58:09;;;;;;;17.30;3.60;;;;;;;4.61;59.70;98098.55;105806;1276;97414;-71
2022/02/18 07:00:38;;;;;;;9.90;2.70;;;;;;;4.62;59.82;98103.55;105828;1276;112678;-71
2022/02/18 07:03:11;;;;;;;;;;;;;;;4.64;59.69;98102.23;105814;1276;100007;-69
2022/02/18 07:05:39;;;;;;;10.70;2.80;;;;;;;4.64;60.06;98108.22;105974;1276;107891;-70
2022/02/18 07:08:07;;;;;;;11.80;3.10;;;;;;;4.67;59.51;98119.45;105836;1276;99353;-72
2022/02/18 07:10:36;;;;;;;11.50;3.20;;;;;;;4.69;59.74;98121.55;105837;1276;96559;-69
2022/02/18 07:13:05;;;;;;;19.20;3.90;;;;;;;4.71;59.88;98110.90;105759;1276;112771;-72
2022/02/18 07:15:32;;;;;;;15.40;2.80;;;;;;;4.75;60.02;98122.98;105718;1276;99246;-72
2022/02/18 07:18:02;;;;;;;16.60;3.30;;;;;;;4.77;59.52;98131.25;105701;1276;107670;-69
2022/02/18 07:20:30;;;;;;;12.60;2.70;;;;;;;4.79;59.64;98132.20;105692;1276;99155;-71
2022/02/18 07:22:59;;;;;;;9.90;3.10;;;;;;;4.80;59.36;98143.89;105773;1276;99335;-71
2022/02/18 07:25:27;;;;;;;9.70;3.00;;;;;;;4.80;59.67;98142.16;105707;1276;113020;-74
2022/02/18 07:27:56;;;;;;;14.30;3.00;;;;;;;4.81;59.39;98146.67;105777;1276;99324;-72
2022/02/18 07:30:24;;;;;;;15.70;3.20;;;;;;;4.82;59.01;98153.30;105749;1276;107781;-73
2022/02/18 07:32:53;;;;;;;16.50;3.70;;;;;;;4.82;59.36;98157.98;105763;1276;99324;-72
2022/02/18 07:35:21;;;;;;;10.60;2.90;;;;;;;4.84;59.35;98162.98;105760;1276;97360;-70
2022/02/18 07:37:49;;;;;;;10.00;3.10;;;;;;;4.87;59.11;98165.59;105690;1277;111797;-71
2022/02/18 07:40:18;;;;;;;13.20;3.10;;;;;;;4.90;59.63;98163.12;105613;1277;97766;-72
2022/02/18 07:42:46;;;;;;;15.70;4.00;;;;;;;4.94;59.64;98166.00;105806;1276;107673;-73
2022/02/18 07:45:17;;;;;;;11.10;3.50;;;;;;;4.99;59.36;98168.85;105931;1276;99403;-72
2022/02/18 07:47:51;;;;;;;14.80;3.50;;;;;;;5.04;58.89;98169.10;105983;1276;98983;-70
2022/02/18 07:50:20;;;;;;;17.80;3.80;;;;;;;5.09;59.09;98177.42;105798;1276;111819;-72
2022/02/18 07:52:50;;;;;;;11.00;3.60;;;;;;;5.11;58.96;98184.77;105961;1276;99359;-72
2022/02/18 07:55:20;;;;;;;10.00;3.10;;;;;;;5.13;58.57;98185.70;105868;1276;107816;-72
2022/02/18 07:57:48;;;;;;;14.30;3.40;;;;;;;5.15;59.07;98177.88;105873;1276;99206;-72
2022/02/18 08:00:16;;;;;;;12.10;3.60;;;;;;;5.23;59.16;98173.83;105893;1276;99227;-72
2022/02/18 08:02:44;;;;;;;17.90;4.00;;;;;;;5.30;59.12;98181.10;106049;1276;113286;-72
2022/02/18 08:05:13;;;;;;;12.70;3.70;;;;;;;5.35;58.86;98185.37;105912;1276;99378;-72
2022/02/18 08:07:42;;;;;;;15.80;3.50;;;;;;;5.38;58.50;98188.89;105828;1276;108249;-71
2022/02/18 08:10:11;;;;;;;13.50;2.80;;;;;;;5.39;57.78;98198.80;105787;1276;99224;-73
2022/02/18 08:12:39;;;;;;;15.60;3.20;;;;;;;5.40;58.16;98192.42;105819;1277;99124;-73
2022/02/18 08:15:07;;;;;;;13.20;2.90;;;;;;;5.45;58.98;98185.58;105827;1278;111503;-71
2022/02/18 08:17:38;;;;;;;7.70;2.90;;;;;;;5.55;58.79;98192.35;105877;1276;100026;-72
2022/02/18 08:20:08;;;;;;;17.50;3.90;;;;;;;5.61;58.67;98204.95;105901;1276;107900;-72
2022/02/18 08:22:40;;;;;;;15.70;4.40;;;;;;;5.64;58.30;98199.14;105962;1276;97756;-74
2022/02/18 08:25:09;;;;;;;16.70;3.60;;;;;;;5.69;58.57;98204.13;105897;1277;99423;-73
2022/02/18 08:27:39;;;;;;;12.70;3.10;;;;;;;5.72;58.80;98199.98;105828;1277;112895;-75
2022/02/18 08:30:07;;;;;;;13.30;3.50;;;;;;;5.72;57.54;98211.27;105859;1276;99417;-73
2022/02/18 08:32:35;;;;;;;14.50;3.40;;;;;;;5.68;57.03;98211.74;105859;1276;107764;-76
2022/02/18 08:35:04;;;;;;;12.80;3.00;;;;;;;5.64;57.18;98217.25;105781;1279;99316;-77
2022/02/18 08:37:33;;;;;;;17.20;3.80;;;;;;;5.62;57.97;98220.52;105923;1279;97268;-73
2022/02/18 08:40:01;;;;;;;19.10;4.60;;;;;;;5.62;58.38;98223.14;105950;1276;111751;-73
2022/02/18 08:42:29;;;;;;;18.40;3.80;;;;;;;5.61;58.33;98225.84;105748;1279;99293;-72
2022/02/18 08:44:57;;;;;;;21.20;4.20;;;;;;;5.58;58.23;98226.61;105715;1279;108501;-74
2022/02/18 08:47:24;;;;;;;16.30;4.00;;;;;;;5.52;58.17;98234.55;105914;1276;97823;-72
2022/02/18 08:49:52;;;;;;;14.90;3.40;;;;;;;5.47;58.09;98228.36;105911;1277;97361;-74
2022/02/18 08:52:20;;;;;;;15.70;3.80;;;;;;;5.47;58.38;98229.98;105840;1276;112701;-74
2022/02/18 08:54:48;;;;;;;16.30;4.20;;;;;;;5.48;58.36;98234.32;105928;1276;99095;-74
2022/02/18 08:57:16;;;;;;;21.90;4.30;;;;;;;5.51;57.57;98243.75;105944;1277;107826;-74
2022/02/18 08:59:45;;;;;;;16.00;4.30;;;;;;;5.56;57.77;98242.22;105965;1276;99313;-78
2022/02/18 09:02:15;;;;;;;13.20;3.80;;;;;;;5.64;57.85;98239.92;105891;1276;97792;-75
2022/02/18 09:04:43;;;;;;;14.50;3.70;;;;;;;5.78;58.42;98241.86;105866;1276;113438;-74
2022/02/18 09:07:11;;;;;;;14.40;4.20;;;;;;;5.90;58.29;98247.60;105921;1276;99212;-76
2022/02/18 09:09:41;;;;;;;16.00;3.70;;;;;;;5.96;58.15;98243.43;105863;1276;107770;-73
2022/02/18 09:12:08;;;;;;;14.30;3.40;;;;;;;6.12;57.77;98246.31;105884;1276;99917;-74
2022/02/18 09:14:36;;;;;;;12.70;3.50;;;;;;;6.36;58.39;98250.89;105925;1276;98777;-74
2022/02/18 09:17:05;;;;;;;15.10;3.60;;;;;;;6.46;56.97;98246.82;105768;1276;112752;-74
2022/02/18 09:19:34;;;;;;;14.80;3.90;;;;;;;6.54;57.76;98256.11;105896;1277;100022;-73
2022/02/18 09:22:02;;;;;;;12.30;3.10;;;;;;;6.57;57.02;98256.47;105928;1276;109678;-72
2022/02/18 09:24:30;;;;;;;14.90;4.00;;;;;;;6.59;57.19;98255.67;105837;1276;98010;-72
2022/02/18 09:26:59;;;;;;;16.70;4.00;;;;;;;6.63;56.84;98254.47;105874;1277;99303;-71
2022/02/18 09:29:26;;;;;;;19.00;3.60;;;;;;;6.66;55.85;98256.40;106050;1276;112922;-72
2022/02/18 09:31:55;;;;;;;7.80;2.60;;;;;;;6.70;56.05;98264.38;105966;1276;99231;-72
2022/02/18 09:34:27;;;;;;;10.90;2.80;;;;;;;6.72;56.37;98263.21;105870;1276;108010;-74
2022/02/18 09:36:56;;;;;;;11.70;3.10;;;;;;;6.68;56.19;98272.29;105893;1276;97745;-73
2022/02/18 09:39:25;;;;;;;14.60;3.10;;;;;;;6.62;56.27;98264.27;105903;1276;97846;-79
2022/02/18 09:41:54;;;;;;;14.60;3.20;;;;;;;6.55;55.35;98269.48;105799;1279;113422;-73
2022/02/18 09:44:25;;;;;;;14.30;3.10;;;;;;;6.45;55.53;98267.53;105830;1279;99198;-73
2022/02/18 09:46:55;;;;;;;14.10;3.10;;;;;;;6.39;56.06;98278.13;105886;1276;107726;-73
2022/02/18 09:49:23;;;;;;;14.80;3.70;;;;;;;6.31;56.68;98276.92;105942;1276;98886;-70
2022/02/18 09:51:51;;;;;;;14.10;3.50;;;;;;;6.27;57.22;98277.56;105965;1276;96529;-74
2022/02/18 09:54:20;;;;;;;16.40;4.70;;;;;;;6.25;57.23;98278.91;105804;1276;112734;-74
2022/02/18 09:56:50;;;;;;;14.40;3.50;;;;;;;6.29;56.94;98285.73;105984;1276;99325;-73
2022/02/18 09:59:19;;;;;;;11.60;3.00;;;;;;;6.37;56.87;98290.75;105950;1276;107621;-71
2022/02/18 10:01:47;;;;;;;13.10;2.80;;;;;;;6.47;56.91;98288.36;105880;1278;99226;-74
2022/02/18 10:04:18;;;;;;;11.30;2.80;;;;;;;6.60;56.72;98293.98;106145;1276;97357;-75
2022/02/18 10:06:46;;;;;;;10.00;3.10;;;;;;;6.64;56.40;98297.27;106035;1276;112433;-74
2022/02/18 10:09:14;;;;;;;10.80;2.90;;;;;;;6.60;55.97;98289.54;105953;1276;99094;-75
2022/02/18 10:11:59;;;;;;;8.20;2.70;;;;;;;6.51;54.75;98297.42;105903;1277;107695;-71
2022/02/18 10:14:58;;;;;;;12.80;2.80;;;;;;;6.38;55.00;98299.48;105929;1276;99224;-71
2022/02/18 10:17:40;;;;;;;13.70;3.20;;;;;;;6.38;56.25;98297.36;105922;1276;99283;-72
2022/02/18 10:20:21;;;;;;;12.40;2.80;;;;;;;6.39;55.37;98312.46;105830;1277;113897;-72
2022/02/18 10:23:04;;;;;;;15.80;3.30;;;;;;;6.37;55.33;98313.13;105930;1277;99936;-73
2022/02/18 10:25:45;;;;;;;15.10;3.60;;;;;;;6.39;55.83;98314.93;105978;1277;107715;-73
2022/02/18 10:28:18;;;;;;;12.60;2.50;;;;;;;6.45;56.24;98312.04;105881;1276;99234;-75
2022/02/18 10:30:46;;;;;;;16.70;3.60;;;;;;;6.58;56.38;98308.52;105831;1277;97755;-73
2022/02/18 10:33:20;;;;;;;19.40;3.80;;;;;;;6.67;56.13;98313.20;105637;1276;111860;-72
2022/02/18 10:35:58;;;;;;;12.20;3.00;;;;;;;6.73;55.93;98319.56;105681;1278;99303;-76
2022/02/18 10:38:46;;;;;;;16.50;3.20;;;;;;;6.69;54.89;98322.44;105673;1276;106785;-73
2022/02/18 10:41:24;;;;;;;12.20;3.30;;;;;;;6.62;55.66;98323.07;105766;1276;99229;-71
2022/02/18 10:43:51;;;;;;;12.40;3.40;;;;;;;6.61;55.59;98322.80;105743;1279;99324;-72
2022/02/18 10:46:19;;;;;;;18.20;4.70;;;;;;;6.53;55.36;98324.34;105572;1278;112826;-74
2022/02/18 10:48:51;;;;;;;14.30;2.70;;;;;;;6.48;54.63;98325.62;105913;1278;99357;-80
2022/02/18 10:51:30;;;;;;;12.80;3.40;;;;;;;6.51;55.86;98323.96;105947;1276;107839;-72
2022/02/18 10:54:08;;;;;;;16.50;4.00;;;;;;;6.59;55.83;98325.07;105946;1277;99284;-72
2022/02/18 10:56:36;;;;;;;18.40;3.70;;;;;;;6.67;55.56;98320.80;105765;1279;98198;-73
2022/02/18 10:59:07;;;;;;;18.30;3.90;;;;;;;6.68;55.54;98324.42;105884;1274;112692;-73
2022/02/18 11:01:44;;;;;;;12.30;3.10;;;;;;;6.67;55.32;98319.35;105985;1276;99309;-73
2022/02/18 11:04:12;;;;;;;14.50;3.70;;;;;;;6.63;54.57;98318.07;105956;1276;107881;-72
2022/02/18 11:06:40;;;;;;;14.60;3.80;;;;;;;6.65;55.48;98312.98;106074;1276;97727;-71
2022/02/18 11:09:11;;;;;;;11.90;3.60;;;;;;;6.77;55.45;98310.47;105952;1276;97814;-73
2022/02/18 11:11:44;;;;;;;12.60;3.30;;;;;;;6.83;55.06;98306.66;106248;1276;112794;-71
2022/02/18 11:14:17;;;;;;;13.60;3.30;;;;;;;6.81;54.87;98324.27;105963;1276;97726;-75
2022/02/18 11:16:55;;;;;;;11.30;3.00;;;;;;;6.80;55.45;98311.48;105938;1276;107856;-73
2022/02/18 11:19:23;;;;;;;9.80;2.70;;;;;;;6.93;54.86;98310.04;106027;1276;99233;-70
2022/02/18 11:22:11;;;;;;;11.90;2.80;;;;;;;7.15;54.80;98311.13;106007;1276;99388;-73
2022/02/18 11:24:39;;;;;;;17.10;3.80;;;;;;;7.35;54.36;98318.35;105919;1276;111843;-73
2022/02/18 11:27:10;;;;;;;17.40;3.50;;;;;;;7.52;53.97;98311.20;105930;1276;99323;-74
2022/02/18 11:29:39;;;;;;;15.90;4.20;;;;;;;7.56;53.31;98317.76;105802;1277;107815;-73
2022/02/18 11:32:51;;;;;;;13.00;3.40;;;;;;;7.59;54.74;98324.41;105956;1276;99291;-74
2022/02/18 11:35:41;;;;;;;13.40;3.30;;;;;;;7.56;53.37;98325.02;105794;1276;99255;-72